sensor_id;sensor_type;location;lat;lon;timestamp;P1;durP1;ratioP1;P2;durP2;ratioP2
78169;SDS011;67412;49.892;14.490;2023-04-24T00:00:50;6.72;;;2.08;;
78169;SDS011;67412;49.892;14.490;2023-04-24T00:03:17;4.45;;;1.73;;
78169;SDS011;67412;49.892;14.490;2023-04-24T00:05:45;6.90;;;2.28;;
78169;SDS011;67412;49.892;14.490;2023-04-24T00:08:11;6.18;;;2.15;;
78169;SDS011;67412;49.892;14.490;2023-04-24T00:10:37;8.32;;;2.90;;
78169;SDS011;67412;49.892;14.490;2023-04-24T00:13:02;6.53;;;2.28;;
78169;SDS011;67412;49.892;14.490;2023-04-24T00:15:27;7.63;;;2.60;;
78169;SDS011;67412;49.892;14.490;2023-04-24T00:17:53;6.45;;;2.45;;
78169;SDS011;67412;49.892;14.490;2023-04-24T00:20:18;7.50;;;2.30;;
78169;SDS011;67412;49.892;14.490;2023-04-24T00:22:44;6.45;;;2.65;;
78169;SDS011;67412;49.892;14.490;2023-04-24T00:25:09;5.57;;;2.05;;
78169;SDS011;67412;49.892;14.490;2023-04-24T00:27:34;4.75;;;1.55;;
78169;SDS011;67412;49.892;14.490;2023-04-24T00:30:02;4.68;;;1.52;;
78169;SDS011;67412;49.892;14.490;2023-04-24T00:32:28;6.18;;;2.25;;
78169;SDS011;67412;49.892;14.490;2023-04-24T00:34:53;5.82;;;1.80;;
78169;SDS011;67412;49.892;14.490;2023-04-24T00:37:18;7.60;;;2.67;;
78169;SDS011;67412;49.892;14.490;2023-04-24T00:39:44;8.77;;;3.47;;
78169;SDS011;67412;49.892;14.490;2023-04-24T00:42:10;9.10;;;3.55;;
78169;SDS011;67412;49.892;14.490;2023-04-24T00:44:35;9.30;;;3.08;;
78169;SDS011;67412;49.892;14.490;2023-04-24T00:47:01;7.38;;;3.15;;
78169;SDS011;67412;49.892;14.490;2023-04-24T00:49:26;9.15;;;3.25;;
78169;SDS011;67412;49.892;14.490;2023-04-24T00:51:52;7.75;;;3.13;;
78169;SDS011;67412;49.892;14.490;2023-04-24T00:54:18;8.80;;;3.05;;
78169;SDS011;67412;49.892;14.490;2023-04-24T00:56:44;7.97;;;2.88;;
78169;SDS011;67412;49.892;14.490;2023-04-24T00:59:13;6.32;;;2.67;;
78169;SDS011;67412;49.892;14.490;2023-04-24T01:01:40;9.32;;;2.70;;
78169;SDS011;67412;49.892;14.490;2023-04-24T01:04:07;8.73;;;3.42;;
78169;SDS011;67412;49.892;14.490;2023-04-24T01:06:32;5.85;;;2.65;;
78169;SDS011;67412;49.892;14.490;2023-04-24T01:08:58;6.93;;;2.55;;
78169;SDS011;67412;49.892;14.490;2023-04-24T01:11:25;8.07;;;2.92;;
78169;SDS011;67412;49.892;14.490;2023-04-24T01:13:51;7.35;;;2.72;;
78169;SDS011;67412;49.892;14.490;2023-04-24T01:16:17;8.70;;;2.92;;
78169;SDS011;67412;49.892;14.490;2023-04-24T01:18:45;7.25;;;2.90;;
78169;SDS011;67412;49.892;14.490;2023-04-24T01:21:11;7.70;;;2.67;;
78169;SDS011;67412;49.892;14.490;2023-04-24T01:23:38;6.35;;;2.58;;
78169;SDS011;67412;49.892;14.490;2023-04-24T01:26:04;7.28;;;2.90;;
78169;SDS011;67412;49.892;14.490;2023-04-24T01:28:29;6.85;;;2.72;;
78169;SDS011;67412;49.892;14.490;2023-04-24T01:30:55;5.82;;;2.40;;
78169;SDS011;67412;49.892;14.490;2023-04-24T01:33:21;7.00;;;2.63;;
78169;SDS011;67412;49.892;14.490;2023-04-24T01:35:47;6.65;;;2.45;;
78169;SDS011;67412;49.892;14.490;2023-04-24T01:38:13;6.50;;;2.40;;
78169;SDS011;67412;49.892;14.490;2023-04-24T01:40:39;8.13;;;2.50;;
78169;SDS011;67412;49.892;14.490;2023-04-24T01:43:05;6.78;;;2.33;;
78169;SDS011;67412;49.892;14.490;2023-04-24T01:45:30;6.32;;;2.42;;
78169;SDS011;67412;49.892;14.490;2023-04-24T01:47:56;5.88;;;2.10;;
78169;SDS011;67412;49.892;14.490;2023-04-24T01:50:22;6.97;;;2.90;;
78169;SDS011;67412;49.892;14.490;2023-04-24T01:52:47;6.47;;;2.50;;
78169;SDS011;67412;49.892;14.490;2023-04-24T01:55:12;7.13;;;2.38;;
78169;SDS011;67412;49.892;14.490;2023-04-24T01:57:38;5.57;;;2.25;;
78169;SDS011;67412;49.892;14.490;2023-04-24T02:00:04;5.82;;;2.10;;
78169;SDS011;67412;49.892;14.490;2023-04-24T02:02:30;5.72;;;2.10;;
78169;SDS011;67412;49.892;14.490;2023-04-24T02:04:56;4.50;;;1.83;;
78169;SDS011;67412;49.892;14.490;2023-04-24T02:07:22;7.38;;;2.13;;
78169;SDS011;67412;49.892;14.490;2023-04-24T02:09:47;5.75;;;2.00;;
78169;SDS011;67412;49.892;14.490;2023-04-24T02:12:13;6.25;;;2.00;;
78169;SDS011;67412;49.892;14.490;2023-04-24T02:14:39;4.40;;;1.92;;
78169;SDS011;67412;49.892;14.490;2023-04-24T02:17:05;5.28;;;1.85;;
78169;SDS011;67412;49.892;14.490;2023-04-24T02:19:31;5.22;;;1.90;;
78169;SDS011;67412;49.892;14.490;2023-04-24T02:21:56;6.78;;;2.20;;
78169;SDS011;67412;49.892;14.490;2023-04-24T02:24:22;4.55;;;1.95;;
78169;SDS011;67412;49.892;14.490;2023-04-24T02:26:47;5.97;;;2.50;;
78169;SDS011;67412;49.892;14.490;2023-04-24T02:29:12;7.15;;;2.85;;
78169;SDS011;67412;49.892;14.490;2023-04-24T02:31:38;7.28;;;2.45;;
78169;SDS011;67412;49.892;14.490;2023-04-24T02:34:03;8.48;;;2.83;;
78169;SDS011;67412;49.892;14.490;2023-04-24T02:36:28;6.78;;;2.30;;
78169;SDS011;67412;49.892;14.490;2023-04-24T02:38:55;5.05;;;2.10;;
78169;SDS011;67412;49.892;14.490;2023-04-24T02:41:20;6.68;;;2.42;;
78169;SDS011;67412;49.892;14.490;2023-04-24T02:43:45;7.97;;;2.75;;
78169;SDS011;67412;49.892;14.490;2023-04-24T02:46:11;10.48;;;2.53;;
78169;SDS011;67412;49.892;14.490;2023-04-24T02:48:36;6.90;;;2.80;;
78169;SDS011;67412;49.892;14.490;2023-04-24T02:51:02;8.40;;;2.60;;
78169;SDS011;67412;49.892;14.490;2023-04-24T02:53:27;7.38;;;2.78;;
78169;SDS011;67412;49.892;14.490;2023-04-24T02:55:54;6.35;;;2.45;;
78169;SDS011;67412;49.892;14.490;2023-04-24T02:58:20;7.05;;;2.55;;
78169;SDS011;67412;49.892;14.490;2023-04-24T03:00:45;7.05;;;2.53;;
78169;SDS011;67412;49.892;14.490;2023-04-24T03:03:12;6.50;;;2.85;;
78169;SDS011;67412;49.892;14.490;2023-04-24T03:05:37;6.93;;;2.50;;
78169;SDS011;67412;49.892;14.490;2023-04-24T03:08:02;7.63;;;2.40;;
78169;SDS011;67412;49.892;14.490;2023-04-24T03:10:28;7.30;;;2.20;;
78169;SDS011;67412;49.892;14.490;2023-04-24T03:12:53;6.50;;;2.17;;
78169;SDS011;67412;49.892;14.490;2023-04-24T03:15:19;6.30;;;2.35;;
78169;SDS011;67412;49.892;14.490;2023-04-24T03:17:45;7.55;;;2.30;;
78169;SDS011;67412;49.892;14.490;2023-04-24T03:20:10;6.32;;;2.13;;
78169;SDS011;67412;49.892;14.490;2023-04-24T03:22:36;6.15;;;2.45;;
78169;SDS011;67412;49.892;14.490;2023-04-24T03:25:01;6.68;;;2.35;;
78169;SDS011;67412;49.892;14.490;2023-04-24T03:27:26;6.50;;;2.45;;
78169;SDS011;67412;49.892;14.490;2023-04-24T03:29:52;5.55;;;2.10;;
78169;SDS011;67412;49.892;14.490;2023-04-24T03:32:21;4.90;;;2.28;;
78169;SDS011;67412;49.892;14.490;2023-04-24T03:34:48;6.75;;;2.58;;
78169;SDS011;67412;49.892;14.490;2023-04-24T03:37:13;6.35;;;2.22;;
78169;SDS011;67412;49.892;14.490;2023-04-24T03:39:39;7.60;;;1.88;;
78169;SDS011;67412;49.892;14.490;2023-04-24T03:42:04;5.28;;;1.83;;
78169;SDS011;67412;49.892;14.490;2023-04-24T03:44:29;5.07;;;2.00;;
78169;SDS011;67412;49.892;14.490;2023-04-24T03:46:57;5.07;;;1.90;;
78169;SDS011;67412;49.892;14.490;2023-04-24T03:49:23;6.35;;;2.00;;
78169;SDS011;67412;49.892;14.490;2023-04-24T03:51:48;5.60;;;1.90;;
78169;SDS011;67412;49.892;14.490;2023-04-24T03:54:13;2.88;;;1.33;;
78169;SDS011;67412;49.892;14.490;2023-04-24T03:56:38;3.13;;;1.35;;
78169;SDS011;67412;49.892;14.490;2023-04-24T03:59:04;4.80;;;1.45;;
78169;SDS011;67412;49.892;14.490;2023-04-24T04:01:29;4.15;;;1.40;;
78169;SDS011;67412;49.892;14.490;2023-04-24T04:03:55;5.90;;;1.90;;
78169;SDS011;67412;49.892;14.490;2023-04-24T04:06:21;5.30;;;2.00;;
78169;SDS011;67412;49.892;14.490;2023-04-24T04:08:46;5.90;;;1.85;;
78169;SDS011;67412;49.892;14.490;2023-04-24T04:11:12;4.90;;;1.45;;
78169;SDS011;67412;49.892;14.490;2023-04-24T04:13:37;2.90;;;1.27;;
78169;SDS011;67412;49.892;14.490;2023-04-24T04:16:03;3.20;;;1.30;;
78169;SDS011;67412;49.892;14.490;2023-04-24T04:18:28;3.25;;;1.20;;
78169;SDS011;67412;49.892;14.490;2023-04-24T04:20:53;3.42;;;1.23;;
78169;SDS011;67412;49.892;14.490;2023-04-24T04:23:19;2.78;;;1.02;;
78169;SDS011;67412;49.892;14.490;2023-04-24T04:25:44;3.72;;;1.08;;
78169;SDS011;67412;49.892;14.490;2023-04-24T04:28:09;1.90;;;1.00;;
78169;SDS011;67412;49.892;14.490;2023-04-24T04:30:35;2.08;;;0.90;;
78169;SDS011;67412;49.892;14.490;2023-04-24T04:33:03;2.03;;;0.73;;
78169;SDS011;67412;49.892;14.490;2023-04-24T04:35:28;2.42;;;0.90;;
78169;SDS011;67412;49.892;14.490;2023-04-24T04:37:53;1.88;;;0.90;;
78169;SDS011;67412;49.892;14.490;2023-04-24T04:40:19;2.70;;;0.88;;
78169;SDS011;67412;49.892;14.490;2023-04-24T04:42:44;2.72;;;1.20;;
78169;SDS011;67412;49.892;14.490;2023-04-24T04:45:10;5.60;;;1.90;;
78169;SDS011;67412;49.892;14.490;2023-04-24T04:47:36;8.32;;;2.38;;
78169;SDS011;67412;49.892;14.490;2023-04-24T04:50:03;6.43;;;2.13;;
78169;SDS011;67412;49.892;14.490;2023-04-24T04:52:30;6.07;;;2.03;;
78169;SDS011;67412;49.892;14.490;2023-04-24T04:54:56;6.45;;;1.70;;
78169;SDS011;67412;49.892;14.490;2023-04-24T04:57:21;5.22;;;1.70;;
78169;SDS011;67412;49.892;14.490;2023-04-24T04:59:46;6.07;;;2.10;;
78169;SDS011;67412;49.892;14.490;2023-04-24T05:02:12;5.47;;;2.20;;
78169;SDS011;67412;49.892;14.490;2023-04-24T05:04:37;5.45;;;1.58;;
78169;SDS011;67412;49.892;14.490;2023-04-24T05:07:02;5.93;;;2.05;;
78169;SDS011;67412;49.892;14.490;2023-04-24T05:09:28;4.32;;;1.85;;
78169;SDS011;67412;49.892;14.490;2023-04-24T05:11:54;5.07;;;1.77;;
78169;SDS011;67412;49.892;14.490;2023-04-24T05:14:20;5.13;;;1.70;;
78169;SDS011;67412;49.892;14.490;2023-04-24T05:16:45;5.68;;;2.08;;
78169;SDS011;67412;49.892;14.490;2023-04-24T05:19:11;7.32;;;2.00;;
78169;SDS011;67412;49.892;14.490;2023-04-24T05:21:38;4.95;;;1.63;;
78169;SDS011;67412;49.892;14.490;2023-04-24T05:24:04;3.50;;;1.60;;
78169;SDS011;67412;49.892;14.490;2023-04-24T05:26:30;5.50;;;1.85;;
78169;SDS011;67412;49.892;14.490;2023-04-24T05:28:55;5.97;;;1.75;;
78169;SDS011;67412;49.892;14.490;2023-04-24T05:31:20;6.60;;;2.13;;
78169;SDS011;67412;49.892;14.490;2023-04-24T05:33:46;8.00;;;2.55;;
78169;SDS011;67412;49.892;14.490;2023-04-24T05:36:11;5.57;;;1.98;;
78169;SDS011;67412;49.892;14.490;2023-04-24T05:38:36;5.22;;;1.55;;
78169;SDS011;67412;49.892;14.490;2023-04-24T05:41:02;4.93;;;1.70;;
78169;SDS011;67412;49.892;14.490;2023-04-24T05:43:27;3.22;;;1.25;;
78169;SDS011;67412;49.892;14.490;2023-04-24T05:45:52;4.20;;;1.40;;
78169;SDS011;67412;49.892;14.490;2023-04-24T05:48:18;2.60;;;1.10;;
78169;SDS011;67412;49.892;14.490;2023-04-24T05:50:44;2.97;;;1.20;;
78169;SDS011;67412;49.892;14.490;2023-04-24T05:53:10;3.83;;;1.33;;
78169;SDS011;67412;49.892;14.490;2023-04-24T05:55:35;4.43;;;1.25;;
78169;SDS011;67412;49.892;14.490;2023-04-24T05:58:01;3.58;;;1.35;;
78169;SDS011;67412;49.892;14.490;2023-04-24T06:00:26;2.72;;;1.17;;
78169;SDS011;67412;49.892;14.490;2023-04-24T06:02:54;5.55;;;1.58;;
78169;SDS011;67412;49.892;14.490;2023-04-24T06:05:20;2.20;;;0.80;;
78169;SDS011;67412;49.892;14.490;2023-04-24T06:07:45;3.90;;;1.17;;
78169;SDS011;67412;49.892;14.490;2023-04-24T06:10:10;2.70;;;1.10;;
78169;SDS011;67412;49.892;14.490;2023-04-24T06:12:36;5.47;;;1.60;;
78169;SDS011;67412;49.892;14.490;2023-04-24T06:15:02;7.15;;;2.50;;
78169;SDS011;67412;49.892;14.490;2023-04-24T06:17:28;8.40;;;2.70;;
78169;SDS011;67412;49.892;14.490;2023-04-24T06:19:53;6.00;;;1.98;;
78169;SDS011;67412;49.892;14.490;2023-04-24T06:22:19;4.80;;;1.80;;
78169;SDS011;67412;49.892;14.490;2023-04-24T06:24:44;6.53;;;1.80;;
78169;SDS011;67412;49.892;14.490;2023-04-24T06:27:10;4.97;;;2.03;;
78169;SDS011;67412;49.892;14.490;2023-04-24T06:29:35;5.53;;;1.90;;
78169;SDS011;67412;49.892;14.490;2023-04-24T06:32:01;5.22;;;1.63;;
78169;SDS011;67412;49.892;14.490;2023-04-24T06:34:26;6.38;;;1.80;;
78169;SDS011;67412;49.892;14.490;2023-04-24T06:36:52;4.80;;;1.75;;
78169;SDS011;67412;49.892;14.490;2023-04-24T06:39:17;6.43;;;1.85;;
78169;SDS011;67412;49.892;14.490;2023-04-24T06:41:42;4.15;;;1.75;;
78169;SDS011;67412;49.892;14.490;2023-04-24T06:44:08;6.15;;;1.70;;
78169;SDS011;67412;49.892;14.490;2023-04-24T06:46:33;5.47;;;2.05;;
78169;SDS011;67412;49.892;14.490;2023-04-24T06:48:59;3.08;;;1.40;;
78169;SDS011;67412;49.892;14.490;2023-04-24T06:51:26;5.18;;;1.65;;
78169;SDS011;67412;49.892;14.490;2023-04-24T06:53:52;5.38;;;1.75;;
78169;SDS011;67412;49.892;14.490;2023-04-24T06:56:18;5.75;;;1.67;;
78169;SDS011;67412;49.892;14.490;2023-04-24T06:58:45;4.53;;;1.63;;
78169;SDS011;67412;49.892;14.490;2023-04-24T07:01:11;4.82;;;1.83;;
78169;SDS011;67412;49.892;14.490;2023-04-24T07:03:36;4.78;;;1.80;;
78169;SDS011;67412;49.892;14.490;2023-04-24T07:06:02;4.68;;;1.60;;
78169;SDS011;67412;49.892;14.490;2023-04-24T07:08:28;3.85;;;1.60;;
78169;SDS011;67412;49.892;14.490;2023-04-24T07:10:55;3.95;;;1.40;;
78169;SDS011;67412;49.892;14.490;2023-04-24T07:13:21;4.70;;;1.60;;
78169;SDS011;67412;49.892;14.490;2023-04-24T07:15:47;4.60;;;1.65;;
78169;SDS011;67412;49.892;14.490;2023-04-24T07:18:15;4.75;;;1.42;;
78169;SDS011;67412;49.892;14.490;2023-04-24T07:20:40;5.30;;;1.75;;
78169;SDS011;67412;49.892;14.490;2023-04-24T07:23:06;5.15;;;1.83;;
78169;SDS011;67412;49.892;14.490;2023-04-24T07:25:31;4.30;;;1.67;;
78169;SDS011;67412;49.892;14.490;2023-04-24T07:27:57;4.60;;;1.65;;
78169;SDS011;67412;49.892;14.490;2023-04-24T07:30:22;4.88;;;1.75;;
78169;SDS011;67412;49.892;14.490;2023-04-24T07:32:47;4.88;;;2.00;;
78169;SDS011;67412;49.892;14.490;2023-04-24T07:35:13;6.05;;;2.08;;
78169;SDS011;67412;49.892;14.490;2023-04-24T07:37:38;4.30;;;1.75;;
78169;SDS011;67412;49.892;14.490;2023-04-24T07:40:04;5.57;;;2.00;;
78169;SDS011;67412;49.892;14.490;2023-04-24T07:42:29;6.53;;;1.98;;
78169;SDS011;67412;49.892;14.490;2023-04-24T07:44:55;6.60;;;2.22;;
78169;SDS011;67412;49.892;14.490;2023-04-24T07:47:21;5.93;;;2.08;;
78169;SDS011;67412;49.892;14.490;2023-04-24T07:49:46;6.18;;;2.10;;
78169;SDS011;67412;49.892;14.490;2023-04-24T07:52:12;4.35;;;1.70;;
78169;SDS011;67412;49.892;14.490;2023-04-24T07:54:37;4.53;;;1.80;;
78169;SDS011;67412;49.892;14.490;2023-04-24T07:57:02;6.00;;;2.17;;
78169;SDS011;67412;49.892;14.490;2023-04-24T07:59:28;8.80;;;2.47;;
78169;SDS011;67412;49.892;14.490;2023-04-24T08:01:53;5.25;;;2.40;;
78169;SDS011;67412;49.892;14.490;2023-04-24T08:04:19;7.78;;;2.63;;
78169;SDS011;67412;49.892;14.490;2023-04-24T08:06:44;6.97;;;2.47;;
78169;SDS011;67412;49.892;14.490;2023-04-24T08:09:09;5.68;;;2.15;;
78169;SDS011;67412;49.892;14.490;2023-04-24T08:11:35;6.25;;;2.30;;
78169;SDS011;67412;49.892;14.490;2023-04-24T08:14:00;6.65;;;2.15;;
78169;SDS011;67412;49.892;14.490;2023-04-24T08:16:26;6.00;;;2.53;;
78169;SDS011;67412;49.892;14.490;2023-04-24T08:18:51;6.10;;;2.47;;
78169;SDS011;67412;49.892;14.490;2023-04-24T08:21:17;6.82;;;2.30;;
78169;SDS011;67412;49.892;14.490;2023-04-24T08:23:44;7.93;;;2.50;;
78169;SDS011;67412;49.892;14.490;2023-04-24T08:26:10;6.00;;;2.42;;
78169;SDS011;67412;49.892;14.490;2023-04-24T08:28:36;6.25;;;2.30;;
78169;SDS011;67412;49.892;14.490;2023-04-24T08:31:01;5.50;;;2.15;;
78169;SDS011;67412;49.892;14.490;2023-04-24T08:33:27;4.80;;;1.50;;
78169;SDS011;67412;49.892;14.490;2023-04-24T08:35:57;4.30;;;1.55;;
78169;SDS011;67412;49.892;14.490;2023-04-24T08:38:23;4.55;;;1.33;;
78169;SDS011;67412;49.892;14.490;2023-04-24T08:40:48;5.95;;;1.52;;
78169;SDS011;67412;49.892;14.490;2023-04-24T08:43:14;4.35;;;1.40;;
78169;SDS011;67412;49.892;14.490;2023-04-24T08:45:41;4.80;;;1.50;;
78169;SDS011;67412;49.892;14.490;2023-04-24T08:48:06;4.60;;;2.17;;
78169;SDS011;67412;49.892;14.490;2023-04-24T08:50:32;4.10;;;1.50;;
78169;SDS011;67412;49.892;14.490;2023-04-24T08:55:25;5.18;;;1.73;;
78169;SDS011;67412;49.892;14.490;2023-04-24T08:57:52;3.65;;;1.30;;
78169;SDS011;67412;49.892;14.490;2023-04-24T09:00:19;3.50;;;1.40;;
78169;SDS011;67412;49.892;14.490;2023-04-24T09:02:46;4.53;;;1.45;;
78169;SDS011;67412;49.892;14.490;2023-04-24T09:05:14;3.50;;;1.17;;
78169;SDS011;67412;49.892;14.490;2023-04-24T09:07:43;2.55;;;1.30;;
78169;SDS011;67412;49.892;14.490;2023-04-24T09:10:11;3.55;;;1.30;;
78169;SDS011;67412;49.892;14.490;2023-04-24T09:12:37;4.38;;;1.45;;
78169;SDS011;67412;49.892;14.490;2023-04-24T09:15:03;4.45;;;1.40;;
78169;SDS011;67412;49.892;14.490;2023-04-24T09:17:30;3.92;;;1.63;;
78169;SDS011;67412;49.892;14.490;2023-04-24T09:22:21;3.60;;;1.23;;
78169;SDS011;67412;49.892;14.490;2023-04-24T09:24:46;3.00;;;1.00;;
78169;SDS011;67412;49.892;14.490;2023-04-24T09:27:12;4.13;;;1.40;;
78169;SDS011;67412;49.892;14.490;2023-04-24T09:32:18;3.88;;;1.13;;
78169;SDS011;67412;49.892;14.490;2023-04-24T09:34:47;3.65;;;1.35;;
78169;SDS011;67412;49.892;14.490;2023-04-24T09:37:28;2.90;;;1.20;;
78169;SDS011;67412;49.892;14.490;2023-04-24T09:40:07;3.58;;;1.48;;
78169;SDS011;67412;49.892;14.490;2023-04-24T09:42:36;2.70;;;1.23;;
78169;SDS011;67412;49.892;14.490;2023-04-24T09:45:02;3.83;;;1.38;;
78169;SDS011;67412;49.892;14.490;2023-04-24T09:47:28;3.78;;;1.58;;
78169;SDS011;67412;49.892;14.490;2023-04-24T09:50:01;3.63;;;1.50;;
78169;SDS011;67412;49.892;14.490;2023-04-24T09:52:34;3.15;;;1.20;;
78169;SDS011;67412;49.892;14.490;2023-04-24T09:55:00;3.10;;;1.35;;
78169;SDS011;67412;49.892;14.490;2023-04-24T09:57:26;3.92;;;1.23;;
78169;SDS011;67412;49.892;14.490;2023-04-24T09:59:51;6.20;;;1.58;;
78169;SDS011;67412;49.892;14.490;2023-04-24T10:02:21;3.65;;;1.30;;
78169;SDS011;67412;49.892;14.490;2023-04-24T10:04:56;2.30;;;1.23;;
78169;SDS011;67412;49.892;14.490;2023-04-24T10:07:25;3.53;;;1.52;;
78169;SDS011;67412;49.892;14.490;2023-04-24T10:09:51;5.20;;;1.42;;
78169;SDS011;67412;49.892;14.490;2023-04-24T10:12:16;3.83;;;1.65;;
78169;SDS011;67412;49.892;14.490;2023-04-24T10:14:42;5.13;;;1.50;;
78169;SDS011;67412;49.892;14.490;2023-04-24T10:17:10;3.92;;;1.33;;
78169;SDS011;67412;49.892;14.490;2023-04-24T10:19:37;3.60;;;1.40;;
78169;SDS011;67412;49.892;14.490;2023-04-24T10:22:03;5.30;;;1.80;;
78169;SDS011;67412;49.892;14.490;2023-04-24T10:24:29;4.72;;;1.58;;
78169;SDS011;67412;49.892;14.490;2023-04-24T10:26:57;4.53;;;1.33;;
78169;SDS011;67412;49.892;14.490;2023-04-24T10:29:22;3.53;;;1.45;;
78169;SDS011;67412;49.892;14.490;2023-04-24T10:31:49;4.82;;;1.63;;
78169;SDS011;67412;49.892;14.490;2023-04-24T10:34:15;3.15;;;1.58;;
78169;SDS011;67412;49.892;14.490;2023-04-24T10:36:43;3.83;;;1.33;;
78169;SDS011;67412;49.892;14.490;2023-04-24T10:39:13;4.65;;;1.98;;
78169;SDS011;67412;49.892;14.490;2023-04-24T10:41:41;2.95;;;1.00;;
78169;SDS011;67412;49.892;14.490;2023-04-24T10:44:07;2.17;;;1.00;;
78169;SDS011;67412;49.892;14.490;2023-04-24T10:46:34;1.95;;;0.90;;
78169;SDS011;67412;49.892;14.490;2023-04-24T10:49:03;4.50;;;0.98;;
78169;SDS011;67412;49.892;14.490;2023-04-24T10:51:47;2.10;;;1.00;;
78169;SDS011;67412;49.892;14.490;2023-04-24T10:54:22;1.98;;;0.65;;
78169;SDS011;67412;49.892;14.490;2023-04-24T11:02:39;2.08;;;0.82;;
78169;SDS011;67412;49.892;14.490;2023-04-24T11:05:05;2.83;;;0.90;;
78169;SDS011;67412;49.892;14.490;2023-04-24T11:13:10;2.30;;;0.80;;
78169;SDS011;67412;49.892;14.490;2023-04-24T11:15:35;1.40;;;0.60;;
78169;SDS011;67412;49.892;14.490;2023-04-24T11:18:01;1.95;;;0.60;;
78169;SDS011;67412;49.892;14.490;2023-04-24T11:20:26;3.28;;;0.90;;
78169;SDS011;67412;49.892;14.490;2023-04-24T11:22:54;2.00;;;0.70;;
78169;SDS011;67412;49.892;14.490;2023-04-24T11:25:22;1.60;;;0.70;;
78169;SDS011;67412;49.892;14.490;2023-04-24T11:27:48;2.60;;;0.77;;
78169;SDS011;67412;49.892;14.490;2023-04-24T11:30:18;0.55;;;0.52;;
78169;SDS011;67412;49.892;14.490;2023-04-24T11:32:47;1.77;;;0.63;;
78169;SDS011;67412;49.892;14.490;2023-04-24T11:35:16;2.45;;;0.60;;
78169;SDS011;67412;49.892;14.490;2023-04-24T11:37:44;2.75;;;0.80;;
78169;SDS011;67412;49.892;14.490;2023-04-24T11:40:12;1.88;;;0.70;;
78169;SDS011;67412;49.892;14.490;2023-04-24T11:42:42;2.30;;;0.95;;
78169;SDS011;67412;49.892;14.490;2023-04-24T11:45:10;1.00;;;0.47;;
78169;SDS011;67412;49.892;14.490;2023-04-24T11:47:38;2.40;;;0.60;;
78169;SDS011;67412;49.892;14.490;2023-04-24T11:50:05;2.55;;;0.75;;
78169;SDS011;67412;49.892;14.490;2023-04-24T11:52:33;1.67;;;0.63;;
78169;SDS011;67412;49.892;14.490;2023-04-24T11:55:01;1.55;;;0.70;;
78169;SDS011;67412;49.892;14.490;2023-04-24T11:57:27;2.58;;;0.70;;
78169;SDS011;67412;49.892;14.490;2023-04-24T11:59:58;1.45;;;0.60;;
78169;SDS011;67412;49.892;14.490;2023-04-24T12:02:23;2.53;;;0.70;;
78169;SDS011;67412;49.892;14.490;2023-04-24T12:04:50;1.52;;;0.60;;
78169;SDS011;67412;49.892;14.490;2023-04-24T12:07:19;2.13;;;0.70;;
78169;SDS011;67412;49.892;14.490;2023-04-24T12:09:59;1.90;;;0.70;;
78169;SDS011;67412;49.892;14.490;2023-04-24T12:12:26;2.75;;;0.60;;
78169;SDS011;67412;49.892;14.490;2023-04-24T12:14:53;0.75;;;0.38;;
78169;SDS011;67412;49.892;14.490;2023-04-24T12:17:27;1.73;;;0.50;;
78169;SDS011;67412;49.892;14.490;2023-04-24T12:19:59;1.30;;;0.45;;
78169;SDS011;67412;49.892;14.490;2023-04-24T12:22:26;0.13;;;0.13;;
78169;SDS011;67412;49.892;14.490;2023-04-24T12:24:55;0.30;;;0.13;;
78169;SDS011;67412;49.892;14.490;2023-04-24T12:29:56;2.08;;;0.40;;
78169;SDS011;67412;49.892;14.490;2023-04-24T12:32:22;0.93;;;0.25;;
78169;SDS011;67412;49.892;14.490;2023-04-24T12:34:49;2.35;;;0.50;;
78169;SDS011;67412;49.892;14.490;2023-04-24T12:37:15;2.17;;;0.50;;
78169;SDS011;67412;49.892;14.490;2023-04-24T12:39:44;0.60;;;0.50;;
78169;SDS011;67412;49.892;14.490;2023-04-24T12:42:28;1.70;;;0.50;;
78169;SDS011;67412;49.892;14.490;2023-04-24T12:44:59;2.25;;;0.40;;
78169;SDS011;67412;49.892;14.490;2023-04-24T12:47:27;0.35;;;0.35;;
78169;SDS011;67412;49.892;14.490;2023-04-24T12:49:54;0.63;;;0.38;;
78169;SDS011;67412;49.892;14.490;2023-04-24T12:52:23;0.93;;;0.50;;
78169;SDS011;67412;49.892;14.490;2023-04-24T12:54:52;1.73;;;0.52;;
78169;SDS011;67412;49.892;14.490;2023-04-24T12:57:19;1.60;;;0.70;;
78169;SDS011;67412;49.892;14.490;2023-04-24T12:59:44;1.77;;;0.70;;
78169;SDS011;67412;49.892;14.490;2023-04-24T13:02:10;2.60;;;0.80;;
78169;SDS011;67412;49.892;14.490;2023-04-24T13:04:36;1.40;;;0.70;;
78169;SDS011;67412;49.892;14.490;2023-04-24T13:07:01;4.30;;;1.63;;
78169;SDS011;67412;49.892;14.490;2023-04-24T13:09:27;1.80;;;0.80;;
78169;SDS011;67412;49.892;14.490;2023-04-24T13:11:52;4.25;;;0.90;;
78169;SDS011;67412;49.892;14.490;2023-04-24T13:14:18;1.85;;;0.85;;
78169;SDS011;67412;49.892;14.490;2023-04-24T13:16:44;1.85;;;0.80;;
78169;SDS011;67412;49.892;14.490;2023-04-24T13:19:10;2.85;;;0.90;;
78169;SDS011;67412;49.892;14.490;2023-04-24T13:21:35;1.92;;;0.80;;
78169;SDS011;67412;49.892;14.490;2023-04-24T13:24:00;3.35;;;1.13;;
78169;SDS011;67412;49.892;14.490;2023-04-24T13:26:26;2.50;;;1.00;;
78169;SDS011;67412;49.892;14.490;2023-04-24T13:28:51;4.40;;;1.27;;
78169;SDS011;67412;49.892;14.490;2023-04-24T13:31:17;2.72;;;1.02;;
78169;SDS011;67412;49.892;14.490;2023-04-24T13:33:42;6.72;;;1.13;;
78169;SDS011;67412;49.892;14.490;2023-04-24T13:36:07;7.05;;;1.30;;
78169;SDS011;67412;49.892;14.490;2023-04-24T13:38:33;1.73;;;0.90;;
78169;SDS011;67412;49.892;14.490;2023-04-24T13:40:59;2.78;;;1.00;;
78169;SDS011;67412;49.892;14.490;2023-04-24T13:43:25;3.30;;;1.25;;
78169;SDS011;67412;49.892;14.490;2023-04-24T13:45:50;2.40;;;0.82;;
78169;SDS011;67412;49.892;14.490;2023-04-24T13:48:16;1.75;;;0.82;;
78169;SDS011;67412;49.892;14.490;2023-04-24T13:50:42;1.58;;;0.80;;
78169;SDS011;67412;49.892;14.490;2023-04-24T13:53:07;0.75;;;0.70;;
78169;SDS011;67412;49.892;14.490;2023-04-24T13:55:33;1.70;;;0.70;;
78169;SDS011;67412;49.892;14.490;2023-04-24T13:57:58;2.65;;;0.88;;
78169;SDS011;67412;49.892;14.490;2023-04-24T14:00:23;1.65;;;0.80;;
78169;SDS011;67412;49.892;14.490;2023-04-24T14:02:49;1.50;;;0.70;;
78169;SDS011;67412;49.892;14.490;2023-04-24T14:05:15;0.70;;;0.52;;
78169;SDS011;67412;49.892;14.490;2023-04-24T14:07:41;1.88;;;0.65;;
78169;SDS011;67412;49.892;14.490;2023-04-24T14:10:06;1.23;;;0.40;;
78169;SDS011;67412;49.892;14.490;2023-04-24T14:12:32;1.27;;;0.60;;
78169;SDS011;67412;49.892;14.490;2023-04-24T14:14:57;1.00;;;0.80;;
78169;SDS011;67412;49.892;14.490;2023-04-24T14:17:23;1.58;;;0.63;;
78169;SDS011;67412;49.892;14.490;2023-04-24T14:19:48;2.28;;;0.70;;
78169;SDS011;67412;49.892;14.490;2023-04-24T14:22:13;1.75;;;0.68;;
78169;SDS011;67412;49.892;14.490;2023-04-24T14:24:39;2.25;;;0.80;;
78169;SDS011;67412;49.892;14.490;2023-04-24T14:27:04;2.05;;;0.82;;
78169;SDS011;67412;49.892;14.490;2023-04-24T14:29:30;1.05;;;0.63;;
78169;SDS011;67412;49.892;14.490;2023-04-24T14:31:55;0.85;;;0.70;;
78169;SDS011;67412;49.892;14.490;2023-04-24T14:34:20;2.38;;;0.77;;
78169;SDS011;67412;49.892;14.490;2023-04-24T14:36:46;1.85;;;0.80;;
78169;SDS011;67412;49.892;14.490;2023-04-24T14:39:11;2.47;;;0.68;;
78169;SDS011;67412;49.892;14.490;2023-04-24T14:41:37;1.33;;;0.68;;
78169;SDS011;67412;49.892;14.490;2023-04-24T14:44:04;1.23;;;0.80;;
78169;SDS011;67412;49.892;14.490;2023-04-24T14:46:29;1.73;;;0.75;;
78169;SDS011;67412;49.892;14.490;2023-04-24T14:48:56;1.95;;;0.70;;